createdAt,value
2017-01-02T00:00:23.782Z,18
2017-01-02T00:01:23.444Z,17.9
2017-01-02T00:02:23.499Z,18.1
2017-01-02T00:03:23.909Z,17.81
2017-01-02T00:04:23.811Z,18
2017-01-02T00:05:23.816Z,17.9
2017-01-02T00:06:23.875Z,18
2017-01-02T00:07:24.941Z,18.1
2017-01-02T00:08:23.844Z,18.1
2017-01-02T00:09:24.300Z,18
2017-01-02T00:10:23.903Z,18
2017-01-02T00:11:23.464Z,17.9
2017-01-02T00:12:23.918Z,17.9
2017-01-02T00:13:23.923Z,18.1
2017-01-02T00:14:23.936Z,18
2017-01-02T00:15:23.889Z,18
2017-01-02T00:16:23.498Z,18.1
2017-01-02T00:17:23.506Z,17.9
2017-01-02T00:18:24.894Z,18
2017-01-02T00:19:23.918Z,18
2017-01-02T00:20:24.628Z,18
2017-01-02T00:21:23.979Z,18.1
2017-01-02T00:22:23.988Z,18
2017-01-02T00:23:23.948Z,17.9
2017-01-02T00:24:23.952Z,18
2017-01-02T00:25:23.958Z,18.1
2017-01-02T00:26:23.967Z,18.1
2017-01-02T00:27:23.973Z,17.9
2017-01-02T00:28:23.982Z,17.9
2017-01-02T00:29:23.642Z,17.9
2017-01-02T00:30:23.652Z,17.81
2017-01-02T00:31:23.608Z,18.19
2017-01-02T00:32:24.059Z,18.1
2017-01-02T00:33:24.020Z,18.1
2017-01-02T00:34:24.074Z,18.1
2017-01-02T00:35:24.030Z,17.9
2017-01-02T00:36:24.063Z,17.9
2017-01-02T00:37:24.046Z,18
2017-01-02T00:38:24.104Z,18
2017-01-02T00:39:24.109Z,18.1
2017-01-02T00:40:24.118Z,18
2017-01-02T00:41:24.125Z,18.1
2017-01-02T00:42:25.130Z,18
2017-01-02T00:43:23.691Z,17.9
2017-01-02T00:44:24.097Z,17.9
2017-01-02T00:45:24.101Z,18
2017-01-02T00:46:24.111Z,17.9
2017-01-02T00:47:23.770Z,17.81
2017-01-02T00:48:24.125Z,18
2017-01-02T00:49:23.734Z,17.9
2017-01-02T00:50:24.144Z,18.19
2017-01-02T00:51:23.798Z,17.81
2017-01-02T00:52:24.151Z,17.71
2017-01-02T00:53:23.811Z,18
2017-01-02T00:54:23.870Z,18.1
2017-01-02T00:55:24.078Z,18.1
2017-01-02T00:56:24.231Z,17.61
2017-01-02T00:57:24.235Z,17.61
2017-01-02T00:58:23.852Z,18.19
2017-01-02T00:59:24.202Z,17.52
2017-01-02T01:00:24.269Z,18
2017-01-02T01:01:23.872Z,17.52
2017-01-02T01:02:23.929Z,18.1
2017-01-02T01:03:24.333Z,18.1
2017-01-02T01:04:23.842Z,17.61
2017-01-02T01:05:23.849Z,18.1
2017-01-02T01:06:23.859Z,17.9
2017-01-02T01:07:24.259Z,18.1
2017-01-02T01:08:24.324Z,17.81
2017-01-02T01:09:24.273Z,17.71
2017-01-02T01:10:24.332Z,17.52
2017-01-02T01:11:23.893Z,17.9
2017-01-02T01:12:23.949Z,18
2017-01-02T01:13:24.063Z,18.1
2017-01-02T01:14:24.313Z,17.9
2017-01-02T01:15:24.365Z,17.81
2017-01-02T01:16:23.929Z,18.1
2017-01-02T01:17:24.380Z,18
2017-01-02T01:18:23.992Z,17.61
2017-01-02T01:19:24.000Z,18.19
2017-01-02T01:20:23.955Z,17.71
2017-01-02T01:21:23.963Z,17.61
2017-01-02T01:22:23.970Z,18
2017-01-02T01:23:23.980Z,17.52
2017-01-02T01:24:24.433Z,17.81
2017-01-02T01:25:23.993Z,18
2017-01-02T01:26:24.445Z,17.81
2017-01-02T01:27:24.009Z,18
2017-01-02T01:28:24.023Z,17.61
2017-01-02T01:29:24.465Z,17.71
2017-01-02T01:30:24.472Z,17.61
2017-01-02T01:31:24.430Z,17.61
2017-01-02T01:32:24.042Z,18.19
2017-01-02T01:33:24.050Z,18.1
2017-01-02T01:34:24.058Z,17.71
2017-01-02T01:35:24.570Z,17.71
2017-01-02T01:36:24.467Z,17.71
2017-01-02T01:37:24.475Z,17.81
2017-01-02T01:38:24.580Z,17.81
2017-01-02T01:39:24.539Z,18
2017-01-02T01:40:24.599Z,17.9
2017-01-02T01:41:24.105Z,17.52
2017-01-02T01:42:24.116Z,17.71
2017-01-02T01:43:24.120Z,18
2017-01-02T01:44:24.522Z,18.19
2017-01-02T01:45:24.187Z,18.1
2017-01-02T01:46:24.690Z,17.52
2017-01-02T01:47:24.548Z,18
2017-01-02T01:48:24.156Z,17.71
2017-01-02T01:49:24.618Z,17.9
2017-01-02T01:50:24.618Z,17.81
2017-01-02T01:51:24.180Z,18.1
2017-01-02T01:52:24.634Z,17.81
2017-01-02T01:53:24.639Z,17.9
2017-01-02T01:54:24.253Z,17.61
2017-01-02T01:55:24.559Z,17.71
2017-01-02T01:56:24.660Z,18
2017-01-02T01:57:25.218Z,17.81
2017-01-02T01:58:24.677Z,18.1
2017-01-02T01:59:24.680Z,17.9
2017-01-02T02:00:24.298Z,17.52
2017-01-02T02:01:24.949Z,17.61
2017-01-02T02:02:24.655Z,17.71
2017-01-02T02:03:24.661Z,17.61
2017-01-02T02:04:25.020Z,18.1
2017-01-02T02:05:24.333Z,18.1
2017-01-02T02:06:24.683Z,17.61
2017-01-02T02:07:24.344Z,17.81
2017-01-02T02:08:25.797Z,17.81
2017-01-02T02:09:24.759Z,17.52
2017-01-02T02:10:24.816Z,17.71
2017-01-02T02:11:24.769Z,17.52
2017-01-02T02:12:24.334Z,17.61
2017-01-02T02:13:24.734Z,17.81
2017-01-02T02:14:24.740Z,18.19
2017-01-02T02:15:24.355Z,18.19
2017-01-02T02:16:24.411Z,18
2017-01-02T02:17:24.815Z,17.81
2017-01-02T02:18:24.768Z,17.9
2017-01-02T02:19:24.431Z,17.61
2017-01-02T02:20:24.833Z,17.71
2017-01-02T02:21:25.139Z,17.71
2017-01-02T02:22:24.898Z,17.71
2017-01-02T02:23:24.804Z,18.1
2017-01-02T02:24:24.813Z,17.61
2017-01-02T02:25:24.473Z,18
2017-01-02T02:26:24.825Z,17.71
2017-01-02T02:27:24.438Z,17.81
2017-01-02T02:28:24.494Z,17.9
2017-01-02T02:29:24.451Z,18
2017-01-02T02:30:24.857Z,17.81
2017-01-02T02:31:24.465Z,18
2017-01-02T02:32:25.225Z,17.52
2017-01-02T02:33:24.878Z,17.61
2017-01-02T02:34:24.934Z,17.61
2017-01-02T02:35:24.548Z,17.61
2017-01-02T02:36:24.502Z,17.71
2017-01-02T02:37:24.956Z,18
2017-01-02T02:38:24.912Z,18.1
2017-01-02T02:39:24.920Z,17.81
2017-01-02T02:40:24.928Z,18.19
2017-01-02T02:41:24.935Z,18.19
2017-01-02T02:42:24.998Z,18.1
2017-01-02T02:43:25.552Z,18.1
2017-01-02T02:44:24.560Z,18.19
2017-01-02T02:45:24.567Z,17.71
2017-01-02T02:46:24.574Z,17.9
2017-01-02T02:47:24.978Z,18
2017-01-02T02:48:24.986Z,18.1
2017-01-02T02:49:24.648Z,17.81
2017-01-02T02:50:25.048Z,18.1
2017-01-02T02:51:25.004Z,18
2017-01-02T02:52:24.617Z,17.9
2017-01-02T02:53:24.725Z,17.9
2017-01-02T02:54:25.781Z,17.9
2017-01-02T02:55:25.035Z,17.9
2017-01-02T02:56:25.041Z,18
2017-01-02T02:57:24.653Z,18
2017-01-02T02:58:24.709Z,17.61
2017-01-02T02:59:25.063Z,18
2017-01-02T03:00:24.774Z,18.1
2017-01-02T03:01:25.079Z,17.52
2017-01-02T03:02:25.134Z,17.71
2017-01-02T03:03:24.747Z,18
2017-01-02T03:04:24.750Z,17.71
2017-01-02T03:05:25.860Z,18
2017-01-02T03:06:24.767Z,17.9
2017-01-02T03:07:25.172Z,17.71
2017-01-02T03:08:25.179Z,17.52
2017-01-02T03:09:25.183Z,17.61
2017-01-02T03:10:24.746Z,18
2017-01-02T03:11:24.752Z,17.61
2017-01-02T03:12:25.156Z,17.61
2017-01-02T03:13:24.768Z,17.9
2017-01-02T03:14:24.773Z,18.19
2017-01-02T03:15:25.180Z,17.61
2017-01-02T03:16:24.838Z,18.1
2017-01-02T03:17:24.799Z,17.9
2017-01-02T03:18:24.803Z,17.81
2017-01-02T03:19:24.858Z,17.81
2017-01-02T03:20:24.916Z,17.71
2017-01-02T03:21:25.320Z,17.81
2017-01-02T03:22:25.226Z,18.1
2017-01-02T03:23:25.286Z,18.1
2017-01-02T03:24:24.893Z,17.9
2017-01-02T03:25:25.298Z,18
2017-01-02T03:26:24.859Z,17.9
2017-01-02T03:27:24.917Z,17.9
2017-01-02T03:29:25.276Z,17.81
2017-01-02T03:30:25.282Z,17.9
2017-01-02T03:31:24.893Z,18.1
2017-01-02T03:32:25.298Z,17.9
2017-01-02T03:33:24.959Z,17.81
2017-01-02T03:34:24.965Z,17.9
2017-01-02T03:35:24.923Z,17.71
2017-01-02T03:36:25.728Z,17.71
2017-01-02T03:37:25.335Z,17.61
2017-01-02T03:38:24.996Z,17.61
2017-01-02T03:39:24.951Z,17.61
2017-01-02T03:40:25.405Z,17.81
2017-01-02T03:41:24.964Z,18
2017-01-02T03:42:25.420Z,18.1
2017-01-02T03:43:25.373Z,17.61
2017-01-02T03:44:25.041Z,18
2017-01-02T03:45:25.439Z,17.61
2017-01-02T03:46:25.498Z,17.9
2017-01-02T03:47:25.406Z,18
2017-01-02T03:48:25.066Z,18.19
2017-01-02T03:49:25.415Z,17.71
2017-01-02T03:50:25.450Z,17.61
2017-01-02T03:51:25.432Z,17.9
2017-01-02T03:52:25.536Z,17.61
2017-01-02T03:53:25.100Z,18
2017-01-02T03:54:25.457Z,18
2017-01-02T03:55:25.113Z,18.1
2017-01-02T03:56:25.469Z,17.9
2017-01-02T03:57:25.526Z,17.9
2017-01-02T03:58:25.688Z,17.71
2017-01-02T03:59:25.119Z,18.1
2017-01-02T04:00:25.299Z,18.1
2017-01-02T04:01:25.502Z,17.9
2017-01-02T04:02:25.114Z,17.9
2017-01-02T04:03:25.519Z,18
2017-01-02T04:04:25.179Z,17.99
2017-01-02T04:05:25.581Z,17.9
2017-01-02T04:06:25.191Z,17.81
2017-01-02T04:07:25.595Z,18.1
2017-01-02T04:08:25.601Z,17.9
2017-01-02T04:09:26.063Z,18.1
2017-01-02T04:10:25.227Z,18
2017-01-02T04:11:25.726Z,18.19
2017-01-02T04:12:25.588Z,17.9
2017-01-02T04:13:25.292Z,18
2017-01-02T04:14:25.597Z,17.9
2017-01-02T04:15:25.257Z,18.1
2017-01-02T04:16:25.612Z,17.9
2017-01-02T04:17:25.619Z,17.9
2017-01-02T04:18:25.236Z,17.9
2017-01-02T04:19:25.681Z,17.9
2017-01-02T04:20:26.791Z,18
2017-01-02T04:21:25.694Z,17.99
2017-01-02T04:22:25.901Z,18.1
2017-01-02T04:23:25.265Z,17.9
2017-01-02T04:24:25.666Z,17.99
2017-01-02T04:25:25.333Z,18.09
2017-01-02T04:26:25.731Z,18.09
2017-01-02T04:27:25.687Z,17.81
2017-01-02T04:28:25.748Z,18
2017-01-02T04:29:25.807Z,17.99
2017-01-02T04:30:25.361Z,17.99
2017-01-02T04:31:26.679Z,17.9
2017-01-02T04:32:25.326Z,17.81
2017-01-02T04:33:26.433Z,17.81
2017-01-02T04:34:25.341Z,18
2017-01-02T04:35:25.349Z,17.9
2017-01-02T04:36:25.952Z,18
2017-01-02T04:37:25.365Z,18.1
2017-01-02T04:38:25.422Z,18.09
2017-01-02T04:39:25.770Z,18.19
2017-01-02T04:40:25.879Z,17.9
2017-01-02T04:41:25.787Z,18.1
2017-01-02T04:42:25.401Z,18
2017-01-02T04:43:25.801Z,18.09
2017-01-02T04:44:26.757Z,17.9
2017-01-02T04:45:25.417Z,18
2017-01-02T04:46:25.821Z,18
2017-01-02T04:47:25.878Z,17.9
2017-01-02T04:48:25.438Z,17.9
2017-01-02T04:49:25.447Z,17.9
2017-01-02T04:50:25.852Z,18
2017-01-02T04:51:25.908Z,18
2017-01-02T04:52:25.470Z,18
2017-01-02T04:53:25.874Z,18.19
2017-01-02T04:54:25.533Z,18
2017-01-02T04:55:25.805Z,17.9
2017-01-02T04:56:25.943Z,18
2017-01-02T04:57:25.900Z,18.1
2017-01-02T04:59:26.013Z,18.1
2017-01-02T05:00:25.921Z,17.9
2017-01-02T05:01:25.533Z,17.9
2017-01-02T05:02:25.537Z,17.9
2017-01-02T05:03:25.546Z,17.9
2017-01-02T05:04:25.604Z,17.81
2017-01-02T05:05:25.607Z,18.1
2017-01-02T05:06:25.618Z,17.99
2017-01-02T05:07:25.969Z,17.9
2017-01-02T05:08:25.977Z,18
2017-01-02T05:09:26.435Z,17.71
2017-01-02T05:10:26.042Z,17.71
2017-01-02T05:11:26.050Z,17.71
2017-01-02T05:12:26.005Z,18.1
2017-01-02T05:13:25.617Z,18
2017-01-02T05:14:25.623Z,17.9
2017-01-02T05:15:25.933Z,18.19
2017-01-02T05:16:25.640Z,18
2017-01-02T05:17:25.694Z,18.1
2017-01-02T05:18:26.049Z,18
2017-01-02T05:19:25.709Z,18.19
2017-01-02T05:20:25.666Z,18.1
2017-01-02T05:21:25.674Z,18.1
2017-01-02T05:22:26.142Z,18
2017-01-02T05:23:26.086Z,18.1
2017-01-02T05:24:26.191Z,17.81
2017-01-02T05:25:26.099Z,17.9
2017-01-02T05:26:26.608Z,17.9
2017-01-02T05:27:26.017Z,17.9
2017-01-02T05:28:42.103Z,18.19
2017-01-02T05:29:25.729Z,18
2017-01-02T05:30:26.184Z,17.99
2017-01-02T05:31:25.748Z,17.9
2017-01-02T05:32:26.196Z,17.9
2017-01-02T05:33:25.807Z,18.09
2017-01-02T05:34:26.215Z,18.09
2017-01-02T05:35:25.825Z,17.99
2017-01-02T05:36:26.227Z,18.09
2017-01-02T05:37:27.083Z,18.19
2017-01-02T05:38:25.795Z,18
2017-01-02T05:39:26.546Z,17.99
2017-01-02T05:40:25.858Z,18.19
2017-01-02T05:41:26.312Z,17.99
2017-01-02T05:42:25.827Z,17.99
2017-01-02T05:43:25.930Z,18.19
2017-01-02T05:44:25.886Z,18.09
2017-01-02T05:45:26.289Z,18.1
2017-01-02T05:46:25.852Z,18.19
2017-01-02T05:47:26.255Z,17.99
2017-01-02T05:48:25.867Z,17.9
2017-01-02T05:49:25.975Z,17.99
2017-01-02T05:50:27.274Z,18.09
2017-01-02T05:51:26.334Z,17.99
2017-01-02T05:52:25.895Z,17.9
2017-01-02T05:53:25.904Z,17.8
2017-01-02T05:54:25.908Z,17.9
2017-01-02T05:55:25.967Z,18.09
2017-01-02T05:56:25.923Z,17.99
2017-01-02T05:57:26.376Z,18
2017-01-02T05:58:27.239Z,17.99
2017-01-02T05:59:26.338Z,18.1
2017-01-02T06:00:26.399Z,17.8
2017-01-02T06:01:27.112Z,17.81
2017-01-02T06:02:26.363Z,17.9
2017-01-02T06:03:25.973Z,18.1
2017-01-02T06:04:26.475Z,17.9
2017-01-02T06:05:26.386Z,18.19
2017-01-02T06:06:26.045Z,17.9
2017-01-02T06:07:26.452Z,17.81
2017-01-02T06:08:26.411Z,18.09
2017-01-02T06:09:26.410Z,17.9
2017-01-02T06:10:26.022Z,18.1
2017-01-02T06:11:26.531Z,17.9
2017-01-02T06:12:27.466Z,17.81
2017-01-02T06:13:26.438Z,17.81
2017-01-02T06:14:26.050Z,17.99
2017-01-02T06:15:26.453Z,18
2017-01-02T06:16:26.562Z,17.81
2017-01-02T06:17:26.520Z,17.7
2017-01-02T06:18:26.478Z,17.8
2017-01-02T06:19:26.532Z,17.8
2017-01-02T06:20:26.492Z,18.1
2017-01-02T06:21:26.102Z,17.71
2017-01-02T06:22:26.558Z,17.9
2017-01-02T06:23:27.535Z,17.9
2017-01-02T06:24:26.517Z,17.7
2017-01-02T06:25:26.131Z,17.7
2017-01-02T06:26:26.187Z,17.8
2017-01-02T06:27:26.193Z,17.99
2017-01-02T06:28:26.203Z,18.19
2017-01-02T06:29:26.206Z,17.8
2017-01-02T06:30:26.563Z,17.99
2017-01-02T06:31:26.620Z,17.9
2017-01-02T06:32:26.623Z,17.9
2017-01-02T06:33:26.636Z,18.1
2017-01-02T06:34:26.192Z,18.19
2017-01-02T06:35:26.620Z,17.9
2017-01-02T06:36:26.607Z,17.9
2017-01-02T06:37:26.215Z,18.09
2017-01-02T06:38:26.277Z,18.1
2017-01-02T06:39:26.281Z,17.9
2017-01-02T06:40:26.236Z,18.19
2017-01-02T06:41:26.690Z,18.1
2017-01-02T06:42:26.250Z,18.1
2017-01-02T06:43:26.557Z,18.1
2017-01-02T06:44:26.365Z,17.8
2017-01-02T06:45:26.714Z,18.09
2017-01-02T06:46:26.726Z,18.1
2017-01-02T06:47:26.746Z,18
2017-01-02T06:48:26.690Z,18
2017-01-02T06:49:26.747Z,18.1
2017-01-02T06:50:26.753Z,18
2017-01-02T06:51:26.763Z,17.9
2017-01-02T06:52:26.322Z,18.19
2017-01-02T06:53:26.776Z,18
2017-01-02T06:54:27.932Z,17.9
2017-01-02T06:55:26.343Z,18
2017-01-02T06:56:27.245Z,18
2017-01-02T06:57:26.407Z,18
2017-01-02T06:58:26.758Z,18
2017-01-02T06:59:26.817Z,18
2017-01-02T07:00:26.427Z,18
2017-01-02T07:01:26.783Z,18
2017-01-02T07:02:26.888Z,17.81
2017-01-02T07:03:27.095Z,17.9
2017-01-02T07:04:26.408Z,17.9
2017-01-02T07:05:27.836Z,18
2017-01-02T07:06:26.422Z,18
2017-01-02T07:07:27.576Z,17.9
2017-01-02T07:08:26.435Z,18.09
2017-01-02T07:09:26.838Z,18
2017-01-02T07:10:26.500Z,18.19
2017-01-02T07:11:26.855Z,17.9
2017-01-02T07:12:26.516Z,17.9
2017-01-02T07:13:26.867Z,18.1
2017-01-02T07:14:26.874Z,17.8
2017-01-02T07:15:26.881Z,17.8
2017-01-02T07:16:26.544Z,17.9
2017-01-02T07:17:26.503Z,18.1
2017-01-02T07:18:27.905Z,17.9
2017-01-02T07:19:26.920Z,17.9
2017-01-02T07:20:26.522Z,17.9
2017-01-02T07:21:26.932Z,18.1
2017-01-02T07:22:26.562Z,17.99
2017-01-02T07:23:26.545Z,18.1
2017-01-02T07:24:26.549Z,18
2017-01-02T07:25:26.807Z,18.1
2017-01-02T07:26:27.013Z,18
2017-01-02T07:27:26.573Z,18
2017-01-02T07:28:27.026Z,17.9
2017-01-02T07:29:26.589Z,17.81
2017-01-02T07:30:27.090Z,18
2017-01-02T07:31:27.296Z,17.81
2017-01-02T07:32:26.608Z,17.52
2017-01-02T07:33:27.014Z,16.94
2017-01-02T07:34:27.019Z,16.94
2017-01-02T07:35:26.651Z,16.66
2017-01-02T07:36:27.287Z,16.66
2017-01-02T07:37:26.694Z,16.37
2017-01-02T07:38:27.047Z,16.56
2017-01-02T07:39:26.709Z,15.89
2017-01-02T07:40:27.062Z,15.61
2017-01-02T07:41:26.674Z,15.89
2017-01-02T07:42:26.729Z,16
2017-01-02T07:43:27.130Z,15.61
2017-01-02T07:44:26.695Z,15.71
2017-01-02T07:45:26.750Z,15.42
2017-01-02T07:46:27.156Z,15.52
2017-01-02T07:47:28.266Z,15.62
2017-01-02T07:48:26.774Z,15.34
2017-01-02T07:49:27.533Z,14.94
2017-01-02T07:50:27.184Z,14.75
2017-01-02T07:51:27.144Z,14.75
2017-01-02T07:52:26.806Z,15.05
2017-01-02T07:53:26.861Z,14.75
2017-01-02T07:54:27.163Z,14.95
2017-01-02T07:55:26.776Z,14.85
2017-01-02T07:56:27.179Z,14.75
2017-01-02T07:57:27.238Z,14.75
2017-01-02T07:58:28.105Z,14.56
2017-01-02T07:59:26.807Z,14.75
2017-01-02T08:00:27.963Z,14.86
2017-01-02T08:01:27.244Z,14.76
2017-01-02T08:02:27.224Z,15.05
2017-01-02T08:03:27.284Z,14.76
2017-01-02T08:04:27.241Z,14.47
2017-01-02T08:05:27.248Z,14.67
2017-01-02T08:06:26.862Z,14.67
2017-01-02T08:07:26.869Z,14.95
2017-01-02T08:08:26.877Z,14.76
2017-01-02T08:09:26.884Z,14.67
2017-01-02T08:10:27.337Z,15.15
2017-01-02T08:11:27.296Z,14.76
2017-01-02T08:12:27.351Z,14.37
2017-01-02T08:13:26.914Z,14.67
2017-01-02T08:14:27.371Z,15.15
2017-01-02T08:15:26.931Z,14.76
2017-01-02T08:16:26.937Z,14.57
2017-01-02T08:17:27.343Z,14.76
2017-01-02T08:18:26.954Z,14.67
2017-01-02T08:19:27.409Z,14.57
2017-01-02T08:20:27.365Z,14.76
2017-01-02T08:21:27.375Z,14.76
2017-01-02T08:22:27.432Z,14.76
2017-01-02T08:23:27.388Z,14.77
2017-01-02T08:24:27.395Z,14.76
2017-01-02T08:25:27.008Z,14.76
2017-01-02T08:26:27.117Z,15.15
2017-01-02T08:27:27.028Z,15.15
2017-01-02T08:28:27.479Z,15.05
2017-01-02T08:29:27.091Z,14.57
2017-01-02T08:30:27.495Z,14.76
2017-01-02T08:31:27.357Z,14.76
2017-01-02T08:32:27.487Z,14.87
2017-01-02T08:33:27.073Z,14.76
2017-01-02T08:34:27.477Z,14.95
2017-01-02T08:35:27.091Z,14.86
2017-01-02T08:36:27.097Z,14.57
2017-01-02T08:37:27.507Z,15.05
2017-01-02T08:38:27.562Z,14.76
2017-01-02T08:39:27.517Z,14.95
2017-01-02T08:40:27.576Z,14.76
2017-01-02T08:41:27.584Z,14.86
2017-01-02T08:42:27.805Z,14.86
2017-01-02T08:43:27.598Z,14.95
2017-01-02T08:44:27.609Z,14.67
2017-01-02T08:45:27.567Z,14.76
2017-01-02T08:46:27.177Z,14.86
2017-01-02T08:47:27.632Z,14.86
2017-01-02T08:48:27.620Z,14.76
2017-01-02T08:49:27.649Z,14.95
2017-01-02T08:50:27.705Z,14.76
2017-01-02T08:51:27.665Z,14.95
2017-01-02T08:52:27.231Z,14.76
2017-01-02T08:53:28.082Z,14.57
2017-01-02T08:54:27.640Z,14.67
2017-01-02T08:55:27.304Z,14.76
2017-01-02T08:56:27.260Z,14.86
2017-01-02T08:57:27.698Z,14.95
2017-01-02T08:58:27.350Z,14.95
2017-01-02T08:59:27.682Z,14.86
2017-01-02T09:00:27.293Z,14.96
2017-01-02T09:01:27.750Z,14.67
2017-01-02T09:02:27.360Z,14.86
2017-01-02T09:03:27.762Z,14.95
2017-01-02T09:04:28.422Z,14.95
2017-01-02T09:05:27.385Z,14.85
2017-01-02T09:06:27.739Z,14.76
2017-01-02T09:07:27.350Z,14.76
2017-01-02T09:08:27.755Z,14.76
2017-01-02T09:09:27.766Z,14.76
2017-01-02T09:10:27.785Z,14.67
2017-01-02T09:11:27.482Z,14.76
2017-01-02T09:12:27.492Z,14.47
2017-01-02T09:13:27.398Z,14.86
2017-01-02T09:14:27.454Z,14.76
2017-01-02T09:15:27.415Z,14.86
2017-01-02T09:16:27.820Z,14.86
2017-01-02T09:17:28.279Z,14.67
2017-01-02T09:18:27.843Z,15.05
2017-01-02T09:19:27.844Z,14.77
2017-01-02T09:20:27.857Z,14.47
2017-01-02T09:21:27.563Z,14.67
2017-01-02T09:22:27.918Z,14.67
2017-01-02T09:23:27.928Z,14.67
2017-01-02T09:24:27.887Z,14.57
2017-01-02T09:25:27.992Z,14.86
2017-01-02T09:26:27.557Z,14.76
2017-01-02T09:27:27.512Z,14.58
2017-01-02T09:28:28.666Z,14.76
2017-01-02T09:29:27.928Z,14.67
2017-01-02T09:30:27.985Z,14.47
2017-01-02T09:31:28.043Z,14.95
2017-01-02T09:32:27.999Z,14.76
2017-01-02T09:33:28.061Z,14.76
2017-01-02T09:34:27.967Z,14.77
2017-01-02T09:35:28.130Z,14.77
2017-01-02T09:36:27.687Z,14.67
2017-01-02T09:37:28.041Z,14.67
2017-01-02T09:38:28.002Z,14.87
2017-01-02T09:39:29.108Z,14.67
2017-01-02T09:40:28.013Z,14.87
2017-01-02T09:41:27.680Z,14.87
2017-01-02T09:42:27.638Z,14.87
2017-01-02T09:43:27.693Z,14.87
2017-01-02T09:44:28.098Z,14.87
2017-01-02T09:45:27.762Z,14.77
2017-01-02T09:46:28.067Z,14.87
2017-01-02T09:47:28.076Z,14.87
2017-01-02T09:48:27.738Z,14.77
2017-01-02T09:49:28.143Z,14.77
2017-01-02T09:50:27.703Z,14.76
2017-01-02T09:51:28.110Z,14.58
2017-01-02T09:52:27.769Z,14.96
2017-01-02T09:53:27.733Z,14.87
2017-01-02T09:54:28.130Z,14.67
2017-01-02T09:55:27.746Z,14.77
2017-01-02T09:56:28.152Z,14.48
2017-01-02T09:57:28.159Z,14.87
2017-01-02T09:58:27.870Z,14.95
2017-01-02T09:59:27.879Z,14.95
2017-01-02T10:00:28.235Z,14.57
2017-01-02T10:01:28.193Z,14.67
2017-01-02T10:02:28.235Z,14.58
2017-01-02T10:03:27.814Z,14.76
2017-01-02T10:04:28.267Z,14.48
2017-01-02T10:05:27.831Z,14.77
2017-01-02T10:06:27.889Z,14.48
2017-01-02T10:07:27.849Z,14.87
2017-01-02T10:08:28.251Z,14.95
2017-01-02T10:09:28.359Z,14.95
2017-01-02T10:10:28.417Z,14.95
2017-01-02T10:11:28.279Z,14.76
2017-01-02T10:12:27.940Z,14.67
2017-01-02T10:13:28.295Z,14.87
2017-01-02T10:14:27.955Z,14.76
2017-01-02T10:15:28.310Z,14.95
2017-01-02T10:16:28.320Z,14.95
2017-01-02T10:17:27.981Z,15.05
2017-01-02T10:18:27.989Z,15.05
2017-01-02T10:19:28.345Z,14.76
2017-01-02T10:20:28.355Z,14.76
2017-01-02T10:21:28.841Z,14.95
2017-01-02T10:22:28.373Z,14.95
2017-01-02T10:23:28.182Z,14.76
2017-01-02T10:24:28.387Z,14.95
2017-01-02T10:25:27.998Z,15.15
2017-01-02T10:26:28.107Z,14.95
2017-01-02T10:27:28.513Z,14.95
2017-01-02T10:28:28.469Z,15.54
2017-01-02T10:29:28.082Z,15.05
2017-01-02T10:30:28.040Z,14.67
2017-01-02T10:31:28.446Z,14.86
2017-01-02T10:32:29.406Z,14.86
2017-01-02T10:33:28.466Z,14.76
2017-01-02T10:34:28.771Z,14.86
2017-01-02T10:35:28.531Z,14.86
2017-01-02T10:36:28.091Z,15.05
2017-01-02T10:37:28.151Z,14.95
2017-01-02T10:38:28.112Z,14.86
2017-01-02T10:39:28.515Z,14.95
2017-01-02T10:40:28.521Z,15.05
2017-01-02T10:41:28.631Z,14.95
2017-01-02T10:42:28.144Z,15.05
2017-01-02T10:43:29.455Z,14.86
2017-01-02T10:44:28.556Z,14.76
2017-01-02T10:45:29.250Z,15.34
2017-01-02T10:46:28.570Z,14.95
2017-01-02T10:47:28.186Z,15.34
2017-01-02T10:48:28.638Z,14.76
2017-01-02T10:49:28.646Z,14.95
2017-01-02T10:50:28.657Z,14.86
2017-01-02T10:51:28.614Z,14.87
2017-01-02T10:52:28.228Z,15.05
2017-01-02T10:53:28.285Z,15.05
2017-01-02T10:54:28.293Z,15.05
2017-01-02T10:55:28.753Z,15.25
2017-01-02T10:56:29.655Z,15.34
2017-01-02T10:57:28.712Z,15.15
2017-01-02T10:58:28.672Z,15.15
2017-01-02T10:59:28.681Z,15.44
2017-01-02T11:00:28.693Z,15.05
2017-01-02T11:01:28.698Z,15.15
2017-01-02T11:02:28.360Z,15.05
2017-01-02T11:03:28.762Z,15.15
2017-01-02T11:04:28.722Z,15.25
2017-01-02T11:05:28.738Z,15.44
2017-01-02T11:06:28.643Z,15.05
2017-01-02T11:07:28.398Z,15.34
2017-01-02T11:08:28.360Z,15.25
2017-01-02T11:09:28.763Z,15.34
2017-01-02T11:10:28.376Z,14.86
2017-01-02T11:11:28.778Z,14.96
2017-01-02T11:12:28.789Z,14.76
2017-01-02T11:13:28.797Z,14.96
2017-01-02T11:14:28.803Z,14.77
2017-01-02T11:15:28.814Z,14.96
2017-01-02T11:16:29.075Z,14.95
2017-01-02T11:17:28.486Z,14.67
2017-01-02T11:18:28.439Z,14.48
2017-01-02T11:19:28.451Z,14.58
2017-01-02T11:20:28.456Z,14.87
2017-01-02T11:21:28.875Z,14.77
2017-01-02T11:22:28.525Z,15.06
2017-01-02T11:23:28.880Z,14.77
2017-01-02T11:24:28.936Z,14.48
2017-01-02T11:25:28.995Z,14.58
2017-01-02T11:26:28.903Z,14.77
2017-01-02T11:27:29.418Z,14.87
2017-01-02T11:28:28.923Z,15.06
2017-01-02T11:29:28.532Z,14.77
2017-01-02T11:30:29.036Z,14.87
2017-01-02T11:31:28.995Z,14.96
2017-01-02T11:32:28.559Z,14.67
2017-01-02T11:33:28.615Z,14.67
2017-01-02T11:34:28.575Z,14.77
2017-01-02T11:35:28.982Z,14.96
2017-01-02T11:36:28.991Z,14.96
2017-01-02T11:37:28.996Z,14.77
2017-01-02T11:38:29.733Z,14.58
2017-01-02T11:39:29.062Z,14.67
2017-01-02T11:40:28.725Z,14.87
2017-01-02T11:41:29.030Z,15.06
2017-01-02T11:42:28.641Z,14.87
2017-01-02T11:43:28.701Z,14.48
2017-01-02T11:44:29.154Z,14.87
2017-01-02T11:45:29.062Z,14.96
2017-01-02T11:46:29.123Z,14.77
2017-01-02T11:47:29.080Z,14.57
2017-01-02T11:48:29.087Z,14.96
2017-01-02T11:49:30.251Z,14.77
2017-01-02T11:50:29.107Z,14.87
2017-01-02T11:51:29.668Z,14.77
2017-01-02T11:52:28.728Z,14.96
2017-01-02T11:53:29.185Z,14.95
2017-01-02T11:54:29.138Z,14.86
2017-01-02T11:55:29.148Z,14.95
2017-01-02T11:56:29.156Z,14.67
2017-01-02T11:57:29.216Z,14.77
2017-01-02T11:58:29.223Z,15.15
2017-01-02T11:59:29.183Z,15.44
2017-01-02T12:00:29.189Z,15.05
2017-01-02T12:01:29.249Z,15.15
2017-01-02T12:02:30.205Z,15.15
2017-01-02T12:03:29.294Z,15.34
2017-01-02T12:04:28.876Z,15.25
2017-01-02T12:05:29.282Z,14.76
2017-01-02T12:06:29.244Z,14.86
2017-01-02T12:07:28.854Z,14.96
2017-01-02T12:08:28.863Z,14.86
2017-01-02T12:09:29.265Z,14.95
2017-01-02T12:10:29.326Z,15.15
2017-01-02T12:11:29.333Z,15.44
2017-01-02T12:12:28.898Z,14.95
2017-01-02T12:13:28.904Z,15.25
2017-01-02T12:14:29.308Z,15.35
2017-01-02T12:15:29.417Z,15.45
2017-01-02T12:16:28.930Z,15.64
2017-01-02T12:17:29.385Z,15.44
2017-01-02T12:18:29.343Z,15.64
2017-01-02T12:19:29.354Z,15.64
2017-01-02T12:20:29.410Z,15.54
2017-01-02T12:21:29.469Z,15.73
2017-01-02T12:22:29.579Z,15.92
2017-01-02T12:23:29.436Z,15.72
2017-01-02T12:24:29.050Z,15.82
2017-01-02T12:25:29.005Z,15.72
2017-01-02T12:26:29.063Z,15.63
2017-01-02T12:27:29.416Z,15.82
2017-01-02T12:29:29.039Z,15.72
2017-01-02T12:30:29.492Z,15.72
2017-01-02T12:31:29.500Z,15.92
2017-01-02T12:32:29.062Z,15.53
2017-01-02T12:33:29.966Z,15.53
2017-01-02T12:34:29.079Z,15.63
2017-01-02T12:35:29.481Z,15.44
2017-01-02T12:36:29.492Z,15.44
2017-01-02T12:37:29.129Z,15.34
2017-01-02T12:38:29.505Z,15.54
2017-01-02T12:39:29.513Z,15.54
2017-01-02T12:40:29.175Z,15.44
2017-01-02T12:41:29.235Z,15.64
2017-01-02T12:42:29.536Z,15.44
2017-01-02T12:43:29.149Z,15.44
2017-01-02T12:44:30.682Z,15.44
2017-01-02T12:45:29.562Z,15.54
2017-01-02T12:46:30.126Z,15.54
2017-01-02T12:47:29.649Z,15.64
2017-01-02T12:48:29.290Z,15.44
2017-01-02T12:49:29.595Z,15.64
2017-01-02T12:50:29.254Z,15.25
2017-01-02T12:51:29.265Z,15.83
2017-01-02T12:52:29.324Z,16.02
2017-01-02T12:53:29.279Z,16.12
2017-01-02T12:54:29.686Z,16.12
2017-01-02T12:55:29.699Z,15.83
2017-01-02T12:56:29.359Z,15.83
2017-01-02T12:57:30.658Z,15.82
2017-01-02T12:58:29.273Z,15.83
2017-01-02T12:59:29.385Z,15.64
2017-01-02T13:00:29.733Z,16.11
2017-01-02T13:01:29.346Z,15.92
2017-01-02T13:02:29.402Z,16.11
2017-01-02T13:03:29.362Z,15.92
2017-01-02T13:04:29.772Z,16.02
2017-01-02T13:05:29.377Z,15.82
2017-01-02T13:06:29.411Z,16.02
2017-01-02T13:07:29.833Z,15.92
2017-01-02T13:08:31.632Z,16.41
2017-01-02T13:09:29.409Z,16.5
2017-01-02T13:10:29.763Z,16.6